Lake Fork, Illinois
Current Conditions -  °F | °C
As of 8:35 AM on Thursday 30 Oct 2014 (Local Time) from KAAA Reporting Station
Clear Clear  
Wind Chill: 35°   Ceiling: Unl
Heat Index: 35°   Visibility: 7mi
Dew Point: 34°   Wind: 0mph
Humidity: 95%   Direction: NA
Pressure: 30.15"   Gusts: NA
Location:  39.97°N, 89.35°W
Report Text: KAAA 301335Z AUTO 00000KT 7SM CLR 02/01 A3015 RMK AO2 T00170010
Loading
Personal Weather Stations






























Interactive Weather Map
Tropical Storm Tracking
New forecast layout! Learn more

10-Day Weather Forecast

Advertisements
Track Severe Weather on mobile